sensor_id;sensor_type;location;lat;lon;timestamp;pressure;altitude;pressure_sealevel;temperature;humidity
74790;BME280;63318;52.406;13.416;2023-05-24T00:02:17;101422.02;;;9.78;71.78
74790;BME280;63318;52.406;13.416;2023-05-24T00:04:45;101422.73;;;9.75;71.86
74790;BME280;63318;52.406;13.416;2023-05-24T00:07:14;101421.97;;;9.71;71.93
74790;BME280;63318;52.406;13.416;2023-05-24T00:09:42;101423.39;;;9.70;71.96
74790;BME280;63318;52.406;13.416;2023-05-24T00:12:11;101425.95;;;9.68;72.05
74790;BME280;63318;52.406;13.416;2023-05-24T00:14:40;101428.02;;;9.65;72.21
74790;BME280;63318;52.406;13.416;2023-05-24T00:17:08;101429.38;;;9.64;72.17
74790;BME280;63318;52.406;13.416;2023-05-24T00:19:36;101427.02;;;9.62;72.14
74790;BME280;63318;52.406;13.416;2023-05-24T00:22:05;101430.93;;;9.60;72.09
74790;BME280;63318;52.406;13.416;2023-05-24T00:24:33;101430.40;;;9.58;72.01
74790;BME280;63318;52.406;13.416;2023-05-24T00:27:02;101427.29;;;9.55;72.11
74790;BME280;63318;52.406;13.416;2023-05-24T00:29:30;101431.35;;;9.53;72.40
74790;BME280;63318;52.406;13.416;2023-05-24T00:31:58;101431.92;;;9.51;72.23
74790;BME280;63318;52.406;13.416;2023-05-24T00:34:27;101436.20;;;9.48;72.20
74790;BME280;63318;52.406;13.416;2023-05-24T00:36:55;101438.55;;;9.46;72.30
74790;BME280;63318;52.406;13.416;2023-05-24T00:39:23;101438.30;;;9.45;72.15
74790;BME280;63318;52.406;13.416;2023-05-24T00:41:51;101440.33;;;9.43;71.99
74790;BME280;63318;52.406;13.416;2023-05-24T00:44:19;101439.04;;;9.42;72.59
74790;BME280;63318;52.406;13.416;2023-05-24T00:46:48;101440.00;;;9.41;72.68
74790;BME280;63318;52.406;13.416;2023-05-24T00:49:16;101441.02;;;9.39;72.66
74790;BME280;63318;52.406;13.416;2023-05-24T00:51:45;101437.36;;;9.38;72.60
74790;BME280;63318;52.406;13.416;2023-05-24T00:54:15;101438.56;;;9.37;72.77
74790;BME280;63318;52.406;13.416;2023-05-24T00:56:43;101434.55;;;9.37;72.98
74790;BME280;63318;52.406;13.416;2023-05-24T00:59:11;101436.53;;;9.36;72.83
74790;BME280;63318;52.406;13.416;2023-05-24T01:01:40;101435.34;;;9.35;72.77
74790;BME280;63318;52.406;13.416;2023-05-24T01:04:09;101429.95;;;9.34;73.00
74790;BME280;63318;52.406;13.416;2023-05-24T01:06:45;101430.02;;;9.34;72.87
74790;BME280;63318;52.406;13.416;2023-05-24T01:09:27;101436.31;;;9.35;73.09
74790;BME280;63318;52.406;13.416;2023-05-24T01:12:10;101437.53;;;9.36;73.36
74790;BME280;63318;52.406;13.416;2023-05-24T01:14:52;101440.44;;;9.37;73.43
74790;BME280;63318;52.406;13.416;2023-05-24T01:17:26;101441.23;;;9.39;73.26
74790;BME280;63318;52.406;13.416;2023-05-24T01:19:59;101444.60;;;9.40;73.21
74790;BME280;63318;52.406;13.416;2023-05-24T01:22:52;101438.37;;;9.42;73.47
74790;BME280;63318;52.406;13.416;2023-05-24T01:25:40;101437.90;;;9.44;73.49
74790;BME280;63318;52.406;13.416;2023-05-24T01:28:12;101439.71;;;9.45;73.38
74790;BME280;63318;52.406;13.416;2023-05-24T01:30:42;101441.70;;;9.46;73.47
74790;BME280;63318;52.406;13.416;2023-05-24T01:33:12;101445.17;;;9.48;73.37
74790;BME280;63318;52.406;13.416;2023-05-24T01:35:40;101447.66;;;9.49;73.36
74790;BME280;63318;52.406;13.416;2023-05-24T01:38:09;101449.72;;;9.50;73.32
74790;BME280;63318;52.406;13.416;2023-05-24T01:40:38;101448.25;;;9.51;73.29
74790;BME280;63318;52.406;13.416;2023-05-24T01:43:14;101447.61;;;9.53;73.32
74790;BME280;63318;52.406;13.416;2023-05-24T01:45:51;101448.46;;;9.55;73.47
74790;BME280;63318;52.406;13.416;2023-05-24T01:48:26;101447.37;;;9.55;73.37
74790;BME280;63318;52.406;13.416;2023-05-24T01:50:59;101449.02;;;9.57;73.34
74790;BME280;63318;52.406;13.416;2023-05-24T01:53:33;101451.24;;;9.58;73.31
74790;BME280;63318;52.406;13.416;2023-05-24T01:56:03;101453.11;;;9.59;73.25
74790;BME280;63318;52.406;13.416;2023-05-24T01:58:33;101453.23;;;9.60;73.19
74790;BME280;63318;52.406;13.416;2023-05-24T02:01:03;101455.48;;;9.62;73.19
74790;BME280;63318;52.406;13.416;2023-05-24T02:03:32;101452.95;;;9.63;73.20
74790;BME280;63318;52.406;13.416;2023-05-24T02:06:00;101453.80;;;9.65;72.99
74790;BME280;63318;52.406;13.416;2023-05-24T02:08:29;101457.46;;;9.67;73.09
74790;BME280;63318;52.406;13.416;2023-05-24T02:10:57;101454.48;;;9.68;73.15
74790;BME280;63318;52.406;13.416;2023-05-24T02:13:25;101455.52;;;9.70;73.27
74790;BME280;63318;52.406;13.416;2023-05-24T02:15:53;101454.70;;;9.70;73.24
74790;BME280;63318;52.406;13.416;2023-05-24T02:18:22;101450.00;;;9.72;73.27
74790;BME280;63318;52.406;13.416;2023-05-24T02:20:50;101451.86;;;9.73;73.07
74790;BME280;63318;52.406;13.416;2023-05-24T02:23:19;101451.96;;;9.73;73.13
74790;BME280;63318;52.406;13.416;2023-05-24T02:25:47;101449.33;;;9.75;72.89
74790;BME280;63318;52.406;13.416;2023-05-24T02:28:15;101446.64;;;9.77;73.27
74790;BME280;63318;52.406;13.416;2023-05-24T02:30:44;101446.77;;;9.77;73.04
74790;BME280;63318;52.406;13.416;2023-05-24T02:33:12;101446.48;;;9.77;73.15
74790;BME280;63318;52.406;13.416;2023-05-24T02:35:40;101443.83;;;9.78;73.17
74790;BME280;63318;52.406;13.416;2023-05-24T02:38:09;101444.64;;;9.80;73.05
74790;BME280;63318;52.406;13.416;2023-05-24T02:40:37;101445.70;;;9.80;73.02
74790;BME280;63318;52.406;13.416;2023-05-24T02:43:05;101448.65;;;9.82;72.88
74790;BME280;63318;52.406;13.416;2023-05-24T02:45:34;101448.95;;;9.82;72.99
74790;BME280;63318;52.406;13.416;2023-05-24T02:48:02;101445.63;;;9.83;72.98
74790;BME280;63318;52.406;13.416;2023-05-24T02:50:31;101448.13;;;9.83;72.88
74790;BME280;63318;52.406;13.416;2023-05-24T02:52:59;101446.86;;;9.84;72.86
74790;BME280;63318;52.406;13.416;2023-05-24T02:55:27;101445.41;;;9.83;72.94
74790;BME280;63318;52.406;13.416;2023-05-24T02:57:56;101444.64;;;9.84;72.73
74790;BME280;63318;52.406;13.416;2023-05-24T03:00:24;101444.30;;;9.83;72.89
74790;BME280;63318;52.406;13.416;2023-05-24T03:02:52;101450.57;;;9.83;73.11
74790;BME280;63318;52.406;13.416;2023-05-24T03:05:21;101452.86;;;9.84;73.08
74790;BME280;63318;52.406;13.416;2023-05-24T03:07:49;101458.20;;;9.85;73.02
74790;BME280;63318;52.406;13.416;2023-05-24T03:10:18;101455.77;;;9.85;72.71
74790;BME280;63318;52.406;13.416;2023-05-24T03:12:46;101458.42;;;9.85;72.83
74790;BME280;63318;52.406;13.416;2023-05-24T03:15:14;101455.42;;;9.85;72.86
74790;BME280;63318;52.406;13.416;2023-05-24T03:17:43;101456.23;;;9.86;72.89
74790;BME280;63318;52.406;13.416;2023-05-24T03:20:12;101459.73;;;9.86;72.86
74790;BME280;63318;52.406;13.416;2023-05-24T03:22:41;101459.98;;;9.87;72.89
74790;BME280;63318;52.406;13.416;2023-05-24T03:25:09;101457.70;;;9.87;72.95
74790;BME280;63318;52.406;13.416;2023-05-24T03:27:38;101457.36;;;9.87;72.68
74790;BME280;63318;52.406;13.416;2023-05-24T03:30:08;101457.13;;;9.87;72.83
74790;BME280;63318;52.406;13.416;2023-05-24T03:32:37;101459.14;;;9.88;72.60
74790;BME280;63318;52.406;13.416;2023-05-24T03:35:07;101456.64;;;9.87;72.49
74790;BME280;63318;52.406;13.416;2023-05-24T03:37:35;101456.36;;;9.88;72.65
74790;BME280;63318;52.406;13.416;2023-05-24T03:40:05;101458.52;;;9.88;72.81
74790;BME280;63318;52.406;13.416;2023-05-24T03:42:34;101459.82;;;9.89;72.58
74790;BME280;63318;52.406;13.416;2023-05-24T03:45:03;101464.15;;;9.88;72.49
74790;BME280;63318;52.406;13.416;2023-05-24T03:47:32;101460.64;;;9.89;72.71
74790;BME280;63318;52.406;13.416;2023-05-24T03:50:01;101464.89;;;9.89;72.28
74790;BME280;63318;52.406;13.416;2023-05-24T03:52:29;101470.33;;;9.90;72.28
74790;BME280;63318;52.406;13.416;2023-05-24T03:54:57;101472.36;;;9.91;72.42
74790;BME280;63318;52.406;13.416;2023-05-24T03:57:26;101478.81;;;9.93;72.58
74790;BME280;63318;52.406;13.416;2023-05-24T03:59:54;101477.00;;;9.93;72.43
74790;BME280;63318;52.406;13.416;2023-05-24T04:02:23;101474.63;;;9.94;72.44
74790;BME280;63318;52.406;13.416;2023-05-24T04:04:52;101477.73;;;9.95;72.12
74790;BME280;63318;52.406;13.416;2023-05-24T04:07:20;101477.54;;;9.96;72.01
74790;BME280;63318;52.406;13.416;2023-05-24T04:09:49;101480.88;;;9.97;72.45
74790;BME280;63318;52.406;13.416;2023-05-24T04:12:18;101484.95;;;9.98;71.93
74790;BME280;63318;52.406;13.416;2023-05-24T04:14:46;101480.63;;;9.98;71.90
74790;BME280;63318;52.406;13.416;2023-05-24T04:17:14;101481.66;;;10.00;71.94
74790;BME280;63318;52.406;13.416;2023-05-24T04:19:43;101483.52;;;10.02;71.99
74790;BME280;63318;52.406;13.416;2023-05-24T04:22:11;101481.11;;;10.04;72.10
74790;BME280;63318;52.406;13.416;2023-05-24T04:24:39;101478.82;;;10.06;72.11
74790;BME280;63318;52.406;13.416;2023-05-24T04:27:08;101483.95;;;10.08;72.29
74790;BME280;63318;52.406;13.416;2023-05-24T04:29:37;101479.10;;;10.10;72.05
74790;BME280;63318;52.406;13.416;2023-05-24T04:32:07;101482.39;;;10.11;72.06
74790;BME280;63318;52.406;13.416;2023-05-24T04:34:36;101485.19;;;10.13;71.88
74790;BME280;63318;52.406;13.416;2023-05-24T04:37:05;101485.32;;;10.14;71.71
74790;BME280;63318;52.406;13.416;2023-05-24T04:39:33;101487.11;;;10.16;71.56
74790;BME280;63318;52.406;13.416;2023-05-24T04:42:02;101487.54;;;10.18;71.35
74790;BME280;63318;52.406;13.416;2023-05-24T04:44:30;101487.70;;;10.18;71.48
74790;BME280;63318;52.406;13.416;2023-05-24T04:46:58;101490.45;;;10.19;71.43
74790;BME280;63318;52.406;13.416;2023-05-24T04:49:27;101493.16;;;10.22;71.20
74790;BME280;63318;52.406;13.416;2023-05-24T04:51:55;101493.90;;;10.23;71.11
74790;BME280;63318;52.406;13.416;2023-05-24T04:54:23;101498.88;;;10.24;71.20
74790;BME280;63318;52.406;13.416;2023-05-24T04:56:52;101501.13;;;10.26;71.03
74790;BME280;63318;52.406;13.416;2023-05-24T04:59:20;101505.05;;;10.28;70.83
74790;BME280;63318;52.406;13.416;2023-05-24T05:01:48;101511.80;;;10.31;70.83
74790;BME280;63318;52.406;13.416;2023-05-24T05:04:17;101518.55;;;10.34;70.64
74790;BME280;63318;52.406;13.416;2023-05-24T05:06:46;101517.88;;;10.36;70.41
74790;BME280;63318;52.406;13.416;2023-05-24T05:09:14;101517.85;;;10.38;70.41
74790;BME280;63318;52.406;13.416;2023-05-24T05:11:44;101522.39;;;10.41;70.46
74790;BME280;63318;52.406;13.416;2023-05-24T05:14:13;101526.96;;;10.44;70.34
74790;BME280;63318;52.406;13.416;2023-05-24T05:16:42;101527.12;;;10.48;70.51
74790;BME280;63318;52.406;13.416;2023-05-24T05:19:11;101528.95;;;10.52;70.35
74790;BME280;63318;52.406;13.416;2023-05-24T05:21:40;101532.09;;;10.54;70.38
74790;BME280;63318;52.406;13.416;2023-05-24T05:24:08;101533.50;;;10.55;70.04
74790;BME280;63318;52.406;13.416;2023-05-24T05:26:37;101539.45;;;10.55;69.87
74790;BME280;63318;52.406;13.416;2023-05-24T05:29:05;101540.89;;;10.54;69.80
74790;BME280;63318;52.406;13.416;2023-05-24T05:31:34;101542.73;;;10.54;69.82
74790;BME280;63318;52.406;13.416;2023-05-24T05:34:03;101546.80;;;10.56;69.93
74790;BME280;63318;52.406;13.416;2023-05-24T05:36:31;101554.06;;;10.59;69.95
74790;BME280;63318;52.406;13.416;2023-05-24T05:38:59;101548.54;;;10.62;69.89
74790;BME280;63318;52.406;13.416;2023-05-24T05:41:27;101554.88;;;10.64;69.76
74790;BME280;63318;52.406;13.416;2023-05-24T05:43:55;101560.05;;;10.68;69.71
74790;BME280;63318;52.406;13.416;2023-05-24T05:46:24;101559.19;;;10.71;69.52
74790;BME280;63318;52.406;13.416;2023-05-24T05:48:52;101558.46;;;10.74;69.58
74790;BME280;63318;52.406;13.416;2023-05-24T05:51:21;101558.55;;;10.79;69.62
74790;BME280;63318;52.406;13.416;2023-05-24T05:53:49;101566.34;;;10.83;69.68
74790;BME280;63318;52.406;13.416;2023-05-24T05:56:18;101569.50;;;10.87;69.45
74790;BME280;63318;52.406;13.416;2023-05-24T05:58:46;101571.27;;;10.91;69.23
74790;BME280;63318;52.406;13.416;2023-05-24T06:01:15;101572.27;;;10.93;69.02
74790;BME280;63318;52.406;13.416;2023-05-24T06:03:45;101571.42;;;10.97;69.09
74790;BME280;63318;52.406;13.416;2023-05-24T06:06:13;101570.25;;;11.01;69.00
74790;BME280;63318;52.406;13.416;2023-05-24T06:08:42;101571.40;;;11.04;68.83
74790;BME280;63318;52.406;13.416;2023-05-24T06:11:10;101570.83;;;11.07;68.85
74790;BME280;63318;52.406;13.416;2023-05-24T06:13:38;101572.29;;;11.11;68.75
74790;BME280;63318;52.406;13.416;2023-05-24T06:16:07;101575.30;;;11.15;68.90
74790;BME280;63318;52.406;13.416;2023-05-24T06:18:35;101577.94;;;11.22;68.91
74790;BME280;63318;52.406;13.416;2023-05-24T06:21:04;101578.80;;;11.29;68.66
74790;BME280;63318;52.406;13.416;2023-05-24T06:23:32;101579.52;;;11.37;68.64
74790;BME280;63318;52.406;13.416;2023-05-24T06:26:01;101580.13;;;11.45;68.48
74790;BME280;63318;52.406;13.416;2023-05-24T06:28:29;101580.15;;;11.52;68.22
74790;BME280;63318;52.406;13.416;2023-05-24T06:30:58;101582.10;;;11.60;68.24
74790;BME280;63318;52.406;13.416;2023-05-24T06:33:26;101583.16;;;11.67;68.11
74790;BME280;63318;52.406;13.416;2023-05-24T06:35:55;101588.32;;;11.72;67.90
74790;BME280;63318;52.406;13.416;2023-05-24T06:38:23;101588.32;;;11.76;67.66
74790;BME280;63318;52.406;13.416;2023-05-24T06:40:52;101587.19;;;11.79;67.81
74790;BME280;63318;52.406;13.416;2023-05-24T06:43:20;101591.48;;;11.84;67.66
74790;BME280;63318;52.406;13.416;2023-05-24T06:45:49;101592.64;;;11.90;67.80
74790;BME280;63318;52.406;13.416;2023-05-24T06:48:17;101598.17;;;11.92;67.62
74790;BME280;63318;52.406;13.416;2023-05-24T06:50:46;101603.85;;;11.93;67.51
74790;BME280;63318;52.406;13.416;2023-05-24T06:53:14;101608.80;;;11.92;67.23
74790;BME280;63318;52.406;13.416;2023-05-24T06:55:43;101610.88;;;11.91;67.37
74790;BME280;63318;52.406;13.416;2023-05-24T06:58:11;101617.11;;;11.92;67.62
74790;BME280;63318;52.406;13.416;2023-05-24T07:00:40;101608.59;;;11.97;67.59
74790;BME280;63318;52.406;13.416;2023-05-24T07:03:09;101613.39;;;12.03;67.65
74790;BME280;63318;52.406;13.416;2023-05-24T07:05:37;101616.48;;;12.12;67.56
74790;BME280;63318;52.406;13.416;2023-05-24T07:08:06;101615.16;;;12.18;67.32
74790;BME280;63318;52.406;13.416;2023-05-24T07:10:34;101617.90;;;12.25;67.21
74790;BME280;63318;52.406;13.416;2023-05-24T07:13:03;101613.93;;;12.30;66.90
74790;BME280;63318;52.406;13.416;2023-05-24T07:15:31;101619.29;;;12.36;66.84
74790;BME280;63318;52.406;13.416;2023-05-24T07:18:00;101623.23;;;12.41;66.57
74790;BME280;63318;52.406;13.416;2023-05-24T07:20:28;101626.51;;;12.45;66.74
74790;BME280;63318;52.406;13.416;2023-05-24T07:22:57;101628.73;;;12.50;66.29
74790;BME280;63318;52.406;13.416;2023-05-24T07:25:25;101631.23;;;12.57;66.40
74790;BME280;63318;52.406;13.416;2023-05-24T07:27:53;101629.02;;;12.64;66.36
74790;BME280;63318;52.406;13.416;2023-05-24T07:30:22;101630.58;;;12.72;66.48
74790;BME280;63318;52.406;13.416;2023-05-24T07:32:52;101631.59;;;12.80;66.58
74790;BME280;63318;52.406;13.416;2023-05-24T07:35:21;101639.08;;;12.88;66.05
74790;BME280;63318;52.406;13.416;2023-05-24T07:37:50;101639.53;;;12.96;65.82
74790;BME280;63318;52.406;13.416;2023-05-24T07:40:18;101643.38;;;13.04;66.05
74790;BME280;63318;52.406;13.416;2023-05-24T07:42:46;101648.75;;;13.10;65.96
74790;BME280;63318;52.406;13.416;2023-05-24T07:45:15;101648.69;;;13.17;65.85
74790;BME280;63318;52.406;13.416;2023-05-24T07:47:43;101649.28;;;13.24;65.84
74790;BME280;63318;52.406;13.416;2023-05-24T07:50:12;101647.09;;;13.32;65.70
74790;BME280;63318;52.406;13.416;2023-05-24T07:52:40;101648.14;;;13.40;65.49
74790;BME280;63318;52.406;13.416;2023-05-24T07:55:09;101651.15;;;13.47;64.81
74790;BME280;63318;52.406;13.416;2023-05-24T07:57:37;101656.48;;;13.52;64.65
74790;BME280;63318;52.406;13.416;2023-05-24T08:00:08;101662.69;;;13.55;64.71
74790;BME280;63318;52.406;13.416;2023-05-24T08:02:37;101660.98;;;13.58;63.87
74790;BME280;63318;52.406;13.416;2023-05-24T08:05:06;101667.58;;;13.60;64.53
74790;BME280;63318;52.406;13.416;2023-05-24T08:07:34;101668.03;;;13.63;64.37
74790;BME280;63318;52.406;13.416;2023-05-24T08:10:03;101669.47;;;13.62;64.43
74790;BME280;63318;52.406;13.416;2023-05-24T08:12:31;101668.98;;;13.63;64.36
74790;BME280;63318;52.406;13.416;2023-05-24T08:15:00;101665.53;;;13.63;64.30
74790;BME280;63318;52.406;13.416;2023-05-24T08:17:29;101669.04;;;13.63;64.00
74790;BME280;63318;52.406;13.416;2023-05-24T08:19:57;101671.23;;;13.64;64.13
74790;BME280;63318;52.406;13.416;2023-05-24T08:22:26;101672.56;;;13.67;64.10
74790;BME280;63318;52.406;13.416;2023-05-24T08:24:54;101673.65;;;13.70;64.18
74790;BME280;63318;52.406;13.416;2023-05-24T08:27:22;101672.83;;;13.74;64.09
74790;BME280;63318;52.406;13.416;2023-05-24T08:29:50;101674.87;;;13.78;63.95
74790;BME280;63318;52.406;13.416;2023-05-24T08:32:19;101675.90;;;13.84;64.11
74790;BME280;63318;52.406;13.416;2023-05-24T08:34:47;101681.27;;;13.89;63.82
74790;BME280;63318;52.406;13.416;2023-05-24T08:37:16;101685.30;;;13.92;63.53
74790;BME280;63318;52.406;13.416;2023-05-24T08:39:45;101686.98;;;13.93;63.51
74790;BME280;63318;52.406;13.416;2023-05-24T08:42:14;101689.00;;;13.94;63.71
74790;BME280;63318;52.406;13.416;2023-05-24T08:44:54;101687.73;;;13.96;62.93
74790;BME280;63318;52.406;13.416;2023-05-24T08:47:26;101690.46;;;13.98;63.25
74790;BME280;63318;52.406;13.416;2023-05-24T08:49:56;101691.92;;;13.99;63.30
74790;BME280;63318;52.406;13.416;2023-05-24T08:52:26;101692.88;;;14.00;62.92
74790;BME280;63318;52.406;13.416;2023-05-24T08:54:57;101691.94;;;14.02;62.76
74790;BME280;63318;52.406;13.416;2023-05-24T08:57:29;101698.48;;;14.03;62.94
74790;BME280;63318;52.406;13.416;2023-05-24T08:59:58;101701.83;;;14.04;62.57
74790;BME280;63318;52.406;13.416;2023-05-24T09:02:27;101703.23;;;14.05;62.55
74790;BME280;63318;52.406;13.416;2023-05-24T09:04:57;101703.53;;;14.07;61.83
74790;BME280;63318;52.406;13.416;2023-05-24T09:07:27;101703.85;;;14.04;61.94
74790;BME280;63318;52.406;13.416;2023-05-24T09:10:03;101702.29;;;14.04;62.06
74790;BME280;63318;52.406;13.416;2023-05-24T09:12:32;101705.16;;;14.11;62.26
74790;BME280;63318;52.406;13.416;2023-05-24T09:15:01;101703.73;;;14.19;62.35
74790;BME280;63318;52.406;13.416;2023-05-24T09:17:31;101706.91;;;14.29;62.44
74790;BME280;63318;52.406;13.416;2023-05-24T09:20:01;101705.95;;;14.40;62.43
74790;BME280;63318;52.406;13.416;2023-05-24T09:22:30;101709.99;;;14.51;62.16
74790;BME280;63318;52.406;13.416;2023-05-24T09:25:00;101707.89;;;14.65;61.85
74790;BME280;63318;52.406;13.416;2023-05-24T09:27:30;101703.09;;;14.79;61.37
74790;BME280;63318;52.406;13.416;2023-05-24T09:30:00;101697.95;;;14.95;61.19
74790;BME280;63318;52.406;13.416;2023-05-24T09:32:28;101696.83;;;15.07;60.52
74790;BME280;63318;52.406;13.416;2023-05-24T09:34:58;101696.70;;;15.19;60.47
74790;BME280;63318;52.406;13.416;2023-05-24T09:37:27;101693.29;;;15.30;59.54
74790;BME280;63318;52.406;13.416;2023-05-24T09:39:56;101692.54;;;15.42;59.19
74790;BME280;63318;52.406;13.416;2023-05-24T09:42:26;101692.59;;;15.54;59.54
74790;BME280;63318;52.406;13.416;2023-05-24T09:45:02;101697.99;;;15.64;59.13
74790;BME280;63318;52.406;13.416;2023-05-24T09:47:32;101700.37;;;15.74;58.88
74790;BME280;63318;52.406;13.416;2023-05-24T09:50:01;101704.83;;;15.82;58.05
74790;BME280;63318;52.406;13.416;2023-05-24T09:52:31;101705.86;;;15.91;58.37
74790;BME280;63318;52.406;13.416;2023-05-24T09:54:59;101712.80;;;15.94;57.64
74790;BME280;63318;52.406;13.416;2023-05-24T09:57:27;101716.39;;;15.92;56.90
74790;BME280;63318;52.406;13.416;2023-05-24T09:59:56;101717.98;;;15.89;57.98
74790;BME280;63318;52.406;13.416;2023-05-24T10:02:26;101718.50;;;15.84;58.09
74790;BME280;63318;52.406;13.416;2023-05-24T10:04:59;101719.11;;;15.82;58.26
74790;BME280;63318;52.406;13.416;2023-05-24T10:07:28;101721.14;;;15.79;57.59
74790;BME280;63318;52.406;13.416;2023-05-24T10:09:57;101722.84;;;15.77;57.52
74790;BME280;63318;52.406;13.416;2023-05-24T10:12:26;101724.36;;;15.74;56.81
74790;BME280;63318;52.406;13.416;2023-05-24T10:14:55;101725.32;;;15.69;56.65
74790;BME280;63318;52.406;13.416;2023-05-24T10:17:24;101721.52;;;15.67;57.02
74790;BME280;63318;52.406;13.416;2023-05-24T10:19:52;101727.80;;;15.62;56.46
74790;BME280;63318;52.406;13.416;2023-05-24T10:22:21;101723.95;;;15.57;57.05
74790;BME280;63318;52.406;13.416;2023-05-24T10:24:53;101722.67;;;15.49;56.16
74790;BME280;63318;52.406;13.416;2023-05-24T10:27:26;101724.52;;;15.40;56.59
74790;BME280;63318;52.406;13.416;2023-05-24T10:30:00;101724.73;;;15.38;57.08
74790;BME280;63318;52.406;13.416;2023-05-24T10:32:33;101724.34;;;15.39;57.31
74790;BME280;63318;52.406;13.416;2023-05-24T10:35:04;101731.06;;;15.40;57.11
74790;BME280;63318;52.406;13.416;2023-05-24T10:37:34;101727.31;;;15.41;57.17
74790;BME280;63318;52.406;13.416;2023-05-24T10:40:02;101731.45;;;15.40;56.78
74790;BME280;63318;52.406;13.416;2023-05-24T10:42:32;101728.83;;;15.36;56.96
74790;BME280;63318;52.406;13.416;2023-05-24T10:45:29;101732.30;;;15.35;57.07
74790;BME280;63318;52.406;13.416;2023-05-24T10:50:43;101735.38;;;15.41;56.33
74790;BME280;63318;52.406;13.416;2023-05-24T10:53:15;101737.80;;;15.45;56.76
74790;BME280;63318;52.406;13.416;2023-05-24T10:55:56;101733.61;;;15.49;56.89
74790;BME280;63318;52.406;13.416;2023-05-24T10:58:44;101732.64;;;15.54;56.60
74790;BME280;63318;52.406;13.416;2023-05-24T11:01:26;101733.69;;;15.57;56.44
74790;BME280;63318;52.406;13.416;2023-05-24T11:04:07;101738.17;;;15.58;56.53
74790;BME280;63318;52.406;13.416;2023-05-24T11:06:47;101744.63;;;15.58;56.50
74790;BME280;63318;52.406;13.416;2023-05-24T11:09:16;101742.66;;;15.56;56.18
74790;BME280;63318;52.406;13.416;2023-05-24T11:11:49;101741.49;;;15.56;56.28
74790;BME280;63318;52.406;13.416;2023-05-24T11:14:26;101742.66;;;15.57;56.28
74790;BME280;63318;52.406;13.416;2023-05-24T11:16:55;101744.84;;;15.57;56.16
74790;BME280;63318;52.406;13.416;2023-05-24T11:19:29;101743.95;;;15.59;56.19
74790;BME280;63318;52.406;13.416;2023-05-24T11:21:58;101741.47;;;15.64;56.21
74790;BME280;63318;52.406;13.416;2023-05-24T11:24:27;101736.42;;;15.67;55.62
74790;BME280;63318;52.406;13.416;2023-05-24T11:26:55;101733.61;;;15.71;55.73
74790;BME280;63318;52.406;13.416;2023-05-24T11:29:24;101732.09;;;15.77;55.43
74790;BME280;63318;52.406;13.416;2023-05-24T11:31:54;101731.00;;;15.83;54.46
74790;BME280;63318;52.406;13.416;2023-05-24T11:34:24;101730.66;;;15.99;54.95
74790;BME280;63318;52.406;13.416;2023-05-24T11:36:52;101732.09;;;16.22;55.83
74790;BME280;63318;52.406;13.416;2023-05-24T11:39:21;101730.81;;;16.51;55.76
74790;BME280;63318;52.406;13.416;2023-05-24T11:41:49;101738.87;;;16.81;55.15
74790;BME280;63318;52.406;13.416;2023-05-24T11:44:28;101736.06;;;17.03;53.86
74790;BME280;63318;52.406;13.416;2023-05-24T11:47:03;101732.23;;;17.19;52.88
74790;BME280;63318;52.406;13.416;2023-05-24T11:49:32;101731.98;;;17.33;52.77
74790;BME280;63318;52.406;13.416;2023-05-24T11:52:01;101731.84;;;17.44;52.41
74790;BME280;63318;52.406;13.416;2023-05-24T11:54:30;101732.84;;;17.53;52.56
74790;BME280;63318;52.406;13.416;2023-05-24T11:56:58;101734.91;;;17.59;52.47
74790;BME280;63318;52.406;13.416;2023-05-24T11:59:28;101734.95;;;17.62;52.72
74790;BME280;63318;52.406;13.416;2023-05-24T12:02:00;101742.52;;;17.64;51.54
74790;BME280;63318;52.406;13.416;2023-05-24T12:04:29;101739.44;;;17.57;52.03
74790;BME280;63318;52.406;13.416;2023-05-24T12:06:59;101740.77;;;17.53;51.46
74790;BME280;63318;52.406;13.416;2023-05-24T12:09:28;101742.11;;;17.52;51.94
74790;BME280;63318;52.406;13.416;2023-05-24T12:11:56;101744.41;;;17.52;52.56
74790;BME280;63318;52.406;13.416;2023-05-24T12:14:26;101746.45;;;17.49;51.68
74790;BME280;63318;52.406;13.416;2023-05-24T12:16:56;101746.06;;;17.47;52.14
74790;BME280;63318;52.406;13.416;2023-05-24T12:19:28;101746.56;;;17.49;52.24
74790;BME280;63318;52.406;13.416;2023-05-24T12:21:57;101750.08;;;17.55;51.71
74790;BME280;63318;52.406;13.416;2023-05-24T12:24:26;101749.88;;;17.58;51.44
74790;BME280;63318;52.406;13.416;2023-05-24T12:26:59;101748.10;;;17.61;51.81
74790;BME280;63318;52.406;13.416;2023-05-24T12:29:30;101750.00;;;17.68;52.34
74790;BME280;63318;52.406;13.416;2023-05-24T12:31:59;101747.23;;;17.74;51.38
74790;BME280;63318;52.406;13.416;2023-05-24T12:34:28;101744.69;;;17.80;51.04
74790;BME280;63318;52.406;13.416;2023-05-24T12:36:58;101745.59;;;17.90;51.13
74790;BME280;63318;52.406;13.416;2023-05-24T12:39:28;101745.84;;;17.98;50.50
74790;BME280;63318;52.406;13.416;2023-05-24T12:41:57;101743.41;;;18.17;50.53
74790;BME280;63318;52.406;13.416;2023-05-24T12:44:27;101740.40;;;18.41;49.87
74790;BME280;63318;52.406;13.416;2023-05-24T12:46:57;101739.92;;;18.63;49.84
74790;BME280;63318;52.406;13.416;2023-05-24T12:49:26;101740.33;;;18.75;49.69
74790;BME280;63318;52.406;13.416;2023-05-24T12:51:55;101740.75;;;18.84;48.90
74790;BME280;63318;52.406;13.416;2023-05-24T12:54:25;101739.94;;;18.89;48.92
74790;BME280;63318;52.406;13.416;2023-05-24T12:56:54;101742.78;;;18.91;48.77
74790;BME280;63318;52.406;13.416;2023-05-24T12:59:24;101746.42;;;18.89;49.25